sensor_id;sensor_type;location;lat;lon;timestamp;temperature;humidity
10905;DHT22;5505;51.450;9.254;2022-08-11T00:01:26;15.10;99.90
10905;DHT22;5505;51.450;9.254;2022-08-11T00:04:15;15.10;99.90
10905;DHT22;5505;51.450;9.254;2022-08-11T00:07:04;15.10;99.90
10905;DHT22;5505;51.450;9.254;2022-08-11T00:09:52;15.10;99.90
10905;DHT22;5505;51.450;9.254;2022-08-11T00:12:42;15.10;99.90
10905;DHT22;5505;51.450;9.254;2022-08-11T00:15:38;15.10;99.90
10905;DHT22;5505;51.450;9.254;2022-08-11T00:18:26;15.00;99.90
10905;DHT22;5505;51.450;9.254;2022-08-11T00:21:14;15.00;99.90
10905;DHT22;5505;51.450;9.254;2022-08-11T00:24:02;15.00;99.90
10905;DHT22;5505;51.450;9.254;2022-08-11T00:26:50;15.00;99.90
10905;DHT22;5505;51.450;9.254;2022-08-11T00:29:38;15.00;99.90
10905;DHT22;5505;51.450;9.254;2022-08-11T00:32:26;14.90;99.90
10905;DHT22;5505;51.450;9.254;2022-08-11T00:35:15;14.80;99.90
10905;DHT22;5505;51.450;9.254;2022-08-11T00:38:03;14.60;99.90
10905;DHT22;5505;51.450;9.254;2022-08-11T00:40:55;14.60;99.90
10905;DHT22;5505;51.450;9.254;2022-08-11T00:44:13;14.50;99.90
10905;DHT22;5505;51.450;9.254;2022-08-11T00:47:13;14.50;99.90
10905;DHT22;5505;51.450;9.254;2022-08-11T00:50:08;14.50;99.90
10905;DHT22;5505;51.450;9.254;2022-08-11T00:53:04;14.50;99.90
10905;DHT22;5505;51.450;9.254;2022-08-11T00:56:22;14.40;99.90
10905;DHT22;5505;51.450;9.254;2022-08-11T00:59:47;15.30;99.90
10905;DHT22;5505;51.450;9.254;2022-08-11T01:02:46;14.30;99.90
10905;DHT22;5505;51.450;9.254;2022-08-11T01:05:48;14.20;99.90
10905;DHT22;5505;51.450;9.254;2022-08-11T01:08:55;14.00;99.90
10905;DHT22;5505;51.450;9.254;2022-08-11T01:12:14;13.90;99.90
10905;DHT22;5505;51.450;9.254;2022-08-11T01:15:44;13.90;99.90
10905;DHT22;5505;51.450;9.254;2022-08-11T01:18:59;13.90;99.90
10905;DHT22;5505;51.450;9.254;2022-08-11T01:22:14;13.90;99.90
10905;DHT22;5505;51.450;9.254;2022-08-11T01:32:36;13.70;99.90
10905;DHT22;5505;51.450;9.254;2022-08-11T01:46:03;13.90;99.90
10905;DHT22;5505;51.450;9.254;2022-08-11T01:48:59;13.70;99.90
10905;DHT22;5505;51.450;9.254;2022-08-11T01:52:00;13.60;99.90
10905;DHT22;5505;51.450;9.254;2022-08-11T01:54:58;13.50;99.90
10905;DHT22;5505;51.450;9.254;2022-08-11T01:58:00;13.50;99.90
10905;DHT22;5505;51.450;9.254;2022-08-11T02:00:57;13.50;99.90
10905;DHT22;5505;51.450;9.254;2022-08-11T02:03:53;13.50;99.90
10905;DHT22;5505;51.450;9.254;2022-08-11T02:06:44;13.50;99.90
10905;DHT22;5505;51.450;9.254;2022-08-11T02:10:08;13.50;99.90
10905;DHT22;5505;51.450;9.254;2022-08-11T02:13:14;13.30;99.90
10905;DHT22;5505;51.450;9.254;2022-08-11T02:16:11;13.30;99.90
10905;DHT22;5505;51.450;9.254;2022-08-11T02:19:05;13.30;99.90
10905;DHT22;5505;51.450;9.254;2022-08-11T02:22:21;13.20;99.90
10905;DHT22;5505;51.450;9.254;2022-08-11T02:25:36;13.30;99.90
10905;DHT22;5505;51.450;9.254;2022-08-11T02:28:26;13.30;99.90
10905;DHT22;5505;51.450;9.254;2022-08-11T02:31:19;13.40;99.90
10905;DHT22;5505;51.450;9.254;2022-08-11T02:34:37;13.30;99.90
10905;DHT22;5505;51.450;9.254;2022-08-11T02:37:37;13.20;99.90
10905;DHT22;5505;51.450;9.254;2022-08-11T02:40:41;13.10;99.90
10905;DHT22;5505;51.450;9.254;2022-08-11T02:43:39;13.00;99.90
10905;DHT22;5505;51.450;9.254;2022-08-11T02:46:32;13.10;99.90
10905;DHT22;5505;51.450;9.254;2022-08-11T02:49:35;13.00;99.90
10905;DHT22;5505;51.450;9.254;2022-08-11T02:52:45;13.00;99.90
10905;DHT22;5505;51.450;9.254;2022-08-11T02:55:55;12.90;99.90
10905;DHT22;5505;51.450;9.254;2022-08-11T02:58:50;12.80;99.90
10905;DHT22;5505;51.450;9.254;2022-08-11T03:01:57;12.70;99.90
10905;DHT22;5505;51.450;9.254;2022-08-11T03:04:54;12.60;99.90
10905;DHT22;5505;51.450;9.254;2022-08-11T03:07:57;12.70;99.90
10905;DHT22;5505;51.450;9.254;2022-08-11T03:10:59;12.70;99.90
10905;DHT22;5505;51.450;9.254;2022-08-11T03:14:13;12.70;99.90
10905;DHT22;5505;51.450;9.254;2022-08-11T03:17:26;12.70;99.90
10905;DHT22;5505;51.450;9.254;2022-08-11T03:20:26;12.60;99.90
10905;DHT22;5505;51.450;9.254;2022-08-11T03:23:22;12.50;99.90
10905;DHT22;5505;51.450;9.254;2022-08-11T03:26:21;12.40;99.90
10905;DHT22;5505;51.450;9.254;2022-08-11T03:29:18;12.40;99.90
10905;DHT22;5505;51.450;9.254;2022-08-11T03:32:10;12.50;99.90
10905;DHT22;5505;51.450;9.254;2022-08-11T03:35:05;12.50;99.90
10905;DHT22;5505;51.450;9.254;2022-08-11T03:37:58;12.50;99.90
10905;DHT22;5505;51.450;9.254;2022-08-11T03:40:58;12.50;99.90
10905;DHT22;5505;51.450;9.254;2022-08-11T03:44:24;12.50;99.90
10905;DHT22;5505;51.450;9.254;2022-08-11T03:47:27;12.50;99.90
10905;DHT22;5505;51.450;9.254;2022-08-11T03:50:41;12.40;99.90
10905;DHT22;5505;51.450;9.254;2022-08-11T03:53:47;12.40;99.90
10905;DHT22;5505;51.450;9.254;2022-08-11T04:00:18;12.40;99.90
10905;DHT22;5505;51.450;9.254;2022-08-11T04:03:36;12.40;99.90
10905;DHT22;5505;51.450;9.254;2022-08-11T04:13:58;12.50;99.90
10905;DHT22;5505;51.450;9.254;2022-08-11T04:17:34;12.50;99.90
10905;DHT22;5505;51.450;9.254;2022-08-11T04:21:03;12.40;99.90
10905;DHT22;5505;51.450;9.254;2022-08-11T04:24:31;12.50;99.90
10905;DHT22;5505;51.450;9.254;2022-08-11T04:30:43;12.30;99.90
10905;DHT22;5505;51.450;9.254;2022-08-11T04:33:53;12.30;99.90
10905;DHT22;5505;51.450;9.254;2022-08-11T04:37:00;12.30;99.90
10905;DHT22;5505;51.450;9.254;2022-08-11T04:47:15;12.50;99.90
10905;DHT22;5505;51.450;9.254;2022-08-11T04:50:36;12.60;99.90
10905;DHT22;5505;51.450;9.254;2022-08-11T04:53:55;13.00;99.90
10905;DHT22;5505;51.450;9.254;2022-08-11T04:57:07;12.60;99.90
10905;DHT22;5505;51.450;9.254;2022-08-11T05:00:13;12.70;99.90
10905;DHT22;5505;51.450;9.254;2022-08-11T05:03:52;12.70;99.90
10905;DHT22;5505;51.450;9.254;2022-08-11T05:07:19;12.70;99.90
10905;DHT22;5505;51.450;9.254;2022-08-11T05:10:20;12.90;99.90
10905;DHT22;5505;51.450;9.254;2022-08-11T05:13:19;12.90;99.90
10905;DHT22;5505;51.450;9.254;2022-08-11T05:16:28;13.00;99.90
10905;DHT22;5505;51.450;9.254;2022-08-11T05:19:34;13.20;99.90
10905;DHT22;5505;51.450;9.254;2022-08-11T05:22:46;13.20;99.90
10905;DHT22;5505;51.450;9.254;2022-08-11T05:25:54;13.40;99.90
10905;DHT22;5505;51.450;9.254;2022-08-11T05:29:02;13.50;99.90
10905;DHT22;5505;51.450;9.254;2022-08-11T05:32:11;13.60;99.90
10905;DHT22;5505;51.450;9.254;2022-08-11T05:35:18;13.80;99.90
10905;DHT22;5505;51.450;9.254;2022-08-11T05:38:15;13.90;99.90
10905;DHT22;5505;51.450;9.254;2022-08-11T05:41:24;15.20;99.90
10905;DHT22;5505;51.450;9.254;2022-08-11T05:44:30;14.20;99.90
10905;DHT22;5505;51.450;9.254;2022-08-11T05:47:35;14.40;99.90
10905;DHT22;5505;51.450;9.254;2022-08-11T05:50:40;14.50;99.90
10905;DHT22;5505;51.450;9.254;2022-08-11T05:53:51;14.70;99.90
10905;DHT22;5505;51.450;9.254;2022-08-11T05:56:58;14.90;99.90
10905;DHT22;5505;51.450;9.254;2022-08-11T05:59:47;15.10;99.90
10905;DHT22;5505;51.450;9.254;2022-08-11T06:02:40;15.20;99.90
10905;DHT22;5505;51.450;9.254;2022-08-11T06:05:32;15.30;99.90
10905;DHT22;5505;51.450;9.254;2022-08-11T06:08:27;15.50;99.90
10905;DHT22;5505;51.450;9.254;2022-08-11T06:11:15;15.60;99.90
10905;DHT22;5505;51.450;9.254;2022-08-11T06:14:04;15.70;99.90
10905;DHT22;5505;51.450;9.254;2022-08-11T06:16:55;15.90;99.90
10905;DHT22;5505;51.450;9.254;2022-08-11T06:19:46;16.00;99.90
10905;DHT22;5505;51.450;9.254;2022-08-11T06:22:34;16.20;99.90
10905;DHT22;5505;51.450;9.254;2022-08-11T06:25:22;16.30;99.90
10905;DHT22;5505;51.450;9.254;2022-08-11T06:28:17;16.60;99.90
10905;DHT22;5505;51.450;9.254;2022-08-11T06:31:12;16.60;99.90
10905;DHT22;5505;51.450;9.254;2022-08-11T06:34:08;16.70;99.90
10905;DHT22;5505;51.450;9.254;2022-08-11T06:37:04;16.80;99.90
10905;DHT22;5505;51.450;9.254;2022-08-11T06:40:04;17.00;99.90
10905;DHT22;5505;51.450;9.254;2022-08-11T06:42:55;17.10;99.90
10905;DHT22;5505;51.450;9.254;2022-08-11T06:45:50;17.20;99.90
10905;DHT22;5505;51.450;9.254;2022-08-11T06:48:39;17.30;99.90
10905;DHT22;5505;51.450;9.254;2022-08-11T06:51:26;17.50;99.90
10905;DHT22;5505;51.450;9.254;2022-08-11T06:54:13;17.70;99.90
10905;DHT22;5505;51.450;9.254;2022-08-11T06:57:00;17.90;99.90
10905;DHT22;5505;51.450;9.254;2022-08-11T07:00:07;18.20;99.90
10905;DHT22;5505;51.450;9.254;2022-08-11T07:03:16;18.50;99.90
10905;DHT22;5505;51.450;9.254;2022-08-11T07:06:17;18.80;99.90
10905;DHT22;5505;51.450;9.254;2022-08-11T07:09:23;19.10;99.90
10905;DHT22;5505;51.450;9.254;2022-08-11T07:12:40;19.50;99.90
10905;DHT22;5505;51.450;9.254;2022-08-11T07:15:47;19.80;99.90
10905;DHT22;5505;51.450;9.254;2022-08-11T07:18:38;20.20;99.90
10905;DHT22;5505;51.450;9.254;2022-08-11T07:21:45;20.40;99.90
10905;DHT22;5505;51.450;9.254;2022-08-11T07:24:56;20.60;99.90
10905;DHT22;5505;51.450;9.254;2022-08-11T07:28:04;20.80;99.90
10905;DHT22;5505;51.450;9.254;2022-08-11T07:31:12;21.00;99.90
10905;DHT22;5505;51.450;9.254;2022-08-11T07:34:14;21.10;99.90
10905;DHT22;5505;51.450;9.254;2022-08-11T07:37:07;21.30;99.90
10905;DHT22;5505;51.450;9.254;2022-08-11T07:39:55;21.50;99.90
10905;DHT22;5505;51.450;9.254;2022-08-11T07:42:44;22.30;99.90
10905;DHT22;5505;51.450;9.254;2022-08-11T07:45:31;21.80;99.90
10905;DHT22;5505;51.450;9.254;2022-08-11T07:48:36;22.00;99.90
10905;DHT22;5505;51.450;9.254;2022-08-11T07:51:46;22.10;99.90
10905;DHT22;5505;51.450;9.254;2022-08-11T07:54:52;22.30;99.40
10905;DHT22;5505;51.450;9.254;2022-08-11T07:57:39;22.50;99.30
10905;DHT22;5505;51.450;9.254;2022-08-11T08:00:46;22.70;98.90
10905;DHT22;5505;51.450;9.254;2022-08-11T08:03:52;23.00;98.50
10905;DHT22;5505;51.450;9.254;2022-08-11T08:07:00;23.10;98.50
10905;DHT22;5505;51.450;9.254;2022-08-11T08:10:07;23.30;98.70
10905;DHT22;5505;51.450;9.254;2022-08-11T08:13:12;23.50;98.20
10905;DHT22;5505;51.450;9.254;2022-08-11T08:16:18;23.70;97.00
10905;DHT22;5505;51.450;9.254;2022-08-11T08:19:23;23.80;97.60
10905;DHT22;5505;51.450;9.254;2022-08-11T08:22:14;24.20;96.40
10905;DHT22;5505;51.450;9.254;2022-08-11T08:25:04;24.30;96.00
10905;DHT22;5505;51.450;9.254;2022-08-11T08:27:52;24.50;95.90
10905;DHT22;5505;51.450;9.254;2022-08-11T08:30:40;24.70;95.60
10905;DHT22;5505;51.450;9.254;2022-08-11T08:33:34;24.80;94.90
10905;DHT22;5505;51.450;9.254;2022-08-11T08:36:22;24.90;94.80
10905;DHT22;5505;51.450;9.254;2022-08-11T08:39:11;25.10;94.30
10905;DHT22;5505;51.450;9.254;2022-08-11T08:41:58;25.30;94.40
10905;DHT22;5505;51.450;9.254;2022-08-11T08:44:52;25.40;94.80
10905;DHT22;5505;51.450;9.254;2022-08-11T08:47:46;25.60;94.60
10905;DHT22;5505;51.450;9.254;2022-08-11T08:50:36;25.70;95.00
10905;DHT22;5505;51.450;9.254;2022-08-11T08:53:47;26.00;93.70
10905;DHT22;5505;51.450;9.254;2022-08-11T08:56:39;26.30;93.50
10905;DHT22;5505;51.450;9.254;2022-08-11T08:59:27;26.40;93.10
10905;DHT22;5505;51.450;9.254;2022-08-11T09:02:16;26.60;92.10
10905;DHT22;5505;51.450;9.254;2022-08-11T09:05:05;26.70;92.50
10905;DHT22;5505;51.450;9.254;2022-08-11T09:07:53;26.80;92.20
10905;DHT22;5505;51.450;9.254;2022-08-11T09:10:44;26.90;91.10
10905;DHT22;5505;51.450;9.254;2022-08-11T09:13:34;27.10;91.40
10905;DHT22;5505;51.450;9.254;2022-08-11T09:16:21;27.20;91.70
10905;DHT22;5505;51.450;9.254;2022-08-11T09:19:09;27.40;90.60
10905;DHT22;5505;51.450;9.254;2022-08-11T09:22:02;27.40;90.30
10905;DHT22;5505;51.450;9.254;2022-08-11T09:25:12;27.20;90.70
10905;DHT22;5505;51.450;9.254;2022-08-11T09:28:18;27.40;89.70
10905;DHT22;5505;51.450;9.254;2022-08-11T09:31:08;27.50;88.00
10905;DHT22;5505;51.450;9.254;2022-08-11T09:33:57;27.60;88.70
10905;DHT22;5505;51.450;9.254;2022-08-11T09:36:45;27.50;89.20
10905;DHT22;5505;51.450;9.254;2022-08-11T09:39:49;27.60;88.10
10905;DHT22;5505;51.450;9.254;2022-08-11T09:42:54;27.80;89.60
10905;DHT22;5505;51.450;9.254;2022-08-11T09:46:00;28.10;86.60
10905;DHT22;5505;51.450;9.254;2022-08-11T09:48:49;28.10;85.50
10905;DHT22;5505;51.450;9.254;2022-08-11T09:51:38;28.00;84.00
10905;DHT22;5505;51.450;9.254;2022-08-11T09:54:26;28.00;83.80
10905;DHT22;5505;51.450;9.254;2022-08-11T09:57:13;28.00;85.60
10905;DHT22;5505;51.450;9.254;2022-08-11T10:00:27;27.90;80.90
10905;DHT22;5505;51.450;9.254;2022-08-11T10:03:16;27.80;81.10
10905;DHT22;5505;51.450;9.254;2022-08-11T10:06:05;27.80;83.20
10905;DHT22;5505;51.450;9.254;2022-08-11T10:09:10;28.10;82.20
10905;DHT22;5505;51.450;9.254;2022-08-11T10:11:58;28.20;82.10
10905;DHT22;5505;51.450;9.254;2022-08-11T10:14:52;28.20;82.60
10905;DHT22;5505;51.450;9.254;2022-08-11T10:17:59;28.10;80.80
10905;DHT22;5505;51.450;9.254;2022-08-11T10:21:08;28.20;81.60
10905;DHT22;5505;51.450;9.254;2022-08-11T10:23:57;28.40;81.30
10905;DHT22;5505;51.450;9.254;2022-08-11T10:27:02;28.60;79.80
10905;DHT22;5505;51.450;9.254;2022-08-11T10:29:50;28.70;79.50
10905;DHT22;5505;51.450;9.254;2022-08-11T10:33:03;28.80;79.70
10905;DHT22;5505;51.450;9.254;2022-08-11T10:36:09;28.70;79.50
10905;DHT22;5505;51.450;9.254;2022-08-11T10:39:00;28.50;78.30
10905;DHT22;5505;51.450;9.254;2022-08-11T10:41:48;28.50;76.70
10905;DHT22;5505;51.450;9.254;2022-08-11T10:44:54;28.40;76.70
10905;DHT22;5505;51.450;9.254;2022-08-11T10:47:43;28.40;76.60
10905;DHT22;5505;51.450;9.254;2022-08-11T10:50:29;28.40;77.10
10905;DHT22;5505;51.450;9.254;2022-08-11T10:53:37;28.30;77.90
10905;DHT22;5505;51.450;9.254;2022-08-11T10:56:42;28.60;76.80
10905;DHT22;5505;51.450;9.254;2022-08-11T10:59:47;28.70;75.30
10905;DHT22;5505;51.450;9.254;2022-08-11T11:02:34;28.60;76.90
10905;DHT22;5505;51.450;9.254;2022-08-11T11:05:25;28.70;74.90
10905;DHT22;5505;51.450;9.254;2022-08-11T11:08:15;28.40;76.80
10905;DHT22;5505;51.450;9.254;2022-08-11T11:11:18;28.20;76.40
10905;DHT22;5505;51.450;9.254;2022-08-11T11:14:06;28.40;75.20
10905;DHT22;5505;51.450;9.254;2022-08-11T11:17:11;28.60;75.90
10905;DHT22;5505;51.450;9.254;2022-08-11T11:20:21;28.60;75.40
10905;DHT22;5505;51.450;9.254;2022-08-11T11:23:13;28.50;76.00
10905;DHT22;5505;51.450;9.254;2022-08-11T11:26:13;28.50;76.60
10905;DHT22;5505;51.450;9.254;2022-08-11T11:29:25;28.80;75.90
10905;DHT22;5505;51.450;9.254;2022-08-11T11:32:19;28.90;73.80
10905;DHT22;5505;51.450;9.254;2022-08-11T11:35:28;28.80;74.40
10905;DHT22;5505;51.450;9.254;2022-08-11T11:38:16;28.70;74.40
10905;DHT22;5505;51.450;9.254;2022-08-11T11:41:04;28.70;73.70
10905;DHT22;5505;51.450;9.254;2022-08-11T11:44:11;28.70;72.70
10905;DHT22;5505;51.450;9.254;2022-08-11T11:47:00;28.70;72.20
10905;DHT22;5505;51.450;9.254;2022-08-11T11:49:48;28.70;72.60
10905;DHT22;5505;51.450;9.254;2022-08-11T11:52:37;28.80;73.50
10905;DHT22;5505;51.450;9.254;2022-08-11T11:55:25;28.80;71.70
10905;DHT22;5505;51.450;9.254;2022-08-11T11:58:13;29.00;71.00
10905;DHT22;5505;51.450;9.254;2022-08-11T12:01:17;29.00;72.00
10905;DHT22;5505;51.450;9.254;2022-08-11T12:04:10;29.10;70.60
10905;DHT22;5505;51.450;9.254;2022-08-11T12:06:59;29.00;71.00
10905;DHT22;5505;51.450;9.254;2022-08-11T12:10:00;29.00;71.60
10905;DHT22;5505;51.450;9.254;2022-08-11T12:12:48;28.90;73.00
10905;DHT22;5505;51.450;9.254;2022-08-11T12:15:53;28.90;73.50
10905;DHT22;5505;51.450;9.254;2022-08-11T12:18:42;28.90;73.30
10905;DHT22;5505;51.450;9.254;2022-08-11T12:21:34;29.00;70.70
10905;DHT22;5505;51.450;9.254;2022-08-11T12:24:21;29.00;73.70
10905;DHT22;5505;51.450;9.254;2022-08-11T12:27:26;29.00;71.30
10905;DHT22;5505;51.450;9.254;2022-08-11T12:30:15;29.00;71.40
10905;DHT22;5505;51.450;9.254;2022-08-11T12:33:04;29.00;71.80
10905;DHT22;5505;51.450;9.254;2022-08-11T12:35:56;28.90;71.30
10905;DHT22;5505;51.450;9.254;2022-08-11T12:38:47;28.90;72.70
10905;DHT22;5505;51.450;9.254;2022-08-11T12:41:37;28.90;72.10
10905;DHT22;5505;51.450;9.254;2022-08-11T12:44:42;29.00;71.10
10905;DHT22;5505;51.450;9.254;2022-08-11T12:47:49;29.10;70.80
10905;DHT22;5505;51.450;9.254;2022-08-11T12:50:57;28.90;71.60
10905;DHT22;5505;51.450;9.254;2022-08-11T12:54:10;28.90;71.90
10905;DHT22;5505;51.450;9.254;2022-08-11T12:57:00;29.00;71.00
10905;DHT22;5505;51.450;9.254;2022-08-11T13:00:06;29.00;71.20
10905;DHT22;5505;51.450;9.254;2022-08-11T13:03:13;29.00;72.10
10905;DHT22;5505;51.450;9.254;2022-08-11T13:06:17;29.10;72.00
10905;DHT22;5505;51.450;9.254;2022-08-11T13:09:08;29.10;70.40
10905;DHT22;5505;51.450;9.254;2022-08-11T13:11:56;29.10;70.50
10905;DHT22;5505;51.450;9.254;2022-08-11T13:15:01;29.00;70.20
10905;DHT22;5505;51.450;9.254;2022-08-11T13:17:50;29.10;70.40
10905;DHT22;5505;51.450;9.254;2022-08-11T13:20:37;29.00;69.60
10905;DHT22;5505;51.450;9.254;2022-08-11T13:23:25;29.00;70.10
10905;DHT22;5505;51.450;9.254;2022-08-11T13:26:15;29.00;71.00
10905;DHT22;5505;51.450;9.254;2022-08-11T13:29:02;29.20;71.50
10905;DHT22;5505;51.450;9.254;2022-08-11T13:31:49;29.30;70.90
10905;DHT22;5505;51.450;9.254;2022-08-11T13:34:37;29.20;70.80
10905;DHT22;5505;51.450;9.254;2022-08-11T13:37:27;29.00;69.90
10905;DHT22;5505;51.450;9.254;2022-08-11T13:40:15;29.00;69.60
10905;DHT22;5505;51.450;9.254;2022-08-11T13:43:05;28.90;69.20
10905;DHT22;5505;51.450;9.254;2022-08-11T13:45:52;29.00;71.60
10905;DHT22;5505;51.450;9.254;2022-08-11T13:49:00;28.90;69.10
10905;DHT22;5505;51.450;9.254;2022-08-11T13:51:47;29.10;70.20
10905;DHT22;5505;51.450;9.254;2022-08-11T13:54:35;29.30;68.90
10905;DHT22;5505;51.450;9.254;2022-08-11T13:57:24;29.20;68.20
10905;DHT22;5505;51.450;9.254;2022-08-11T14:00:12;29.30;67.90
10905;DHT22;5505;51.450;9.254;2022-08-11T14:02:59;29.20;66.80
10905;DHT22;5505;51.450;9.254;2022-08-11T14:05:50;29.20;65.10
10905;DHT22;5505;51.450;9.254;2022-08-11T14:08:38;29.10;65.60
10905;DHT22;5505;51.450;9.254;2022-08-11T14:11:26;29.20;66.00
10905;DHT22;5505;51.450;9.254;2022-08-11T14:14:32;29.30;63.40
10905;DHT22;5505;51.450;9.254;2022-08-11T14:17:23;29.20;62.80
10905;DHT22;5505;51.450;9.254;2022-08-11T14:20:13;29.20;63.50
10905;DHT22;5505;51.450;9.254;2022-08-11T14:23:02;29.20;62.80
10905;DHT22;5505;51.450;9.254;2022-08-11T14:25:48;29.30;63.00
10905;DHT22;5505;51.450;9.254;2022-08-11T14:28:56;29.40;63.30
10905;DHT22;5505;51.450;9.254;2022-08-11T14:31:48;29.60;62.80
10905;DHT22;5505;51.450;9.254;2022-08-11T14:34:40;29.70;62.60
10905;DHT22;5505;51.450;9.254;2022-08-11T14:37:27;29.70;64.20
10905;DHT22;5505;51.450;9.254;2022-08-11T14:40:15;29.50;63.30
10905;DHT22;5505;51.450;9.254;2022-08-11T14:43:16;29.50;62.50
10905;DHT22;5505;51.450;9.254;2022-08-11T14:46:21;29.50;63.50
10905;DHT22;5505;51.450;9.254;2022-08-11T14:49:27;29.40;63.80
10905;DHT22;5505;51.450;9.254;2022-08-11T14:52:16;29.50;63.80
10905;DHT22;5505;51.450;9.254;2022-08-11T14:55:07;29.70;63.20
10905;DHT22;5505;51.450;9.254;2022-08-11T14:58:15;29.60;63.80
10905;DHT22;5505;51.450;9.254;2022-08-11T15:01:02;29.60;64.10
10905;DHT22;5505;51.450;9.254;2022-08-11T15:04:10;29.60;64.10
10905;DHT22;5505;51.450;9.254;2022-08-11T15:06:56;29.70;63.60
10905;DHT22;5505;51.450;9.254;2022-08-11T15:09:44;29.70;64.40
10905;DHT22;5505;51.450;9.254;2022-08-11T15:12:33;29.60;64.40
10905;DHT22;5505;51.450;9.254;2022-08-11T15:15:21;29.70;64.30
10905;DHT22;5505;51.450;9.254;2022-08-11T15:18:26;29.70;64.80
10905;DHT22;5505;51.450;9.254;2022-08-11T15:21:14;29.60;64.40
10905;DHT22;5505;51.450;9.254;2022-08-11T15:24:18;29.40;64.40
10905;DHT22;5505;51.450;9.254;2022-08-11T15:27:10;29.40;64.30
10905;DHT22;5505;51.450;9.254;2022-08-11T15:30:15;29.30;64.90
10905;DHT22;5505;51.450;9.254;2022-08-11T15:33:20;29.30;66.20
10905;DHT22;5505;51.450;9.254;2022-08-11T15:36:29;29.40;64.30
10905;DHT22;5505;51.450;9.254;2022-08-11T15:39:46;29.60;63.90
10905;DHT22;5505;51.450;9.254;2022-08-11T15:42:56;29.70;64.90
10905;DHT22;5505;51.450;9.254;2022-08-11T15:46:07;29.70;65.60
10905;DHT22;5505;51.450;9.254;2022-08-11T15:48:57;29.80;64.70
10905;DHT22;5505;51.450;9.254;2022-08-11T15:51:47;29.70;64.40
10905;DHT22;5505;51.450;9.254;2022-08-11T15:54:39;29.70;65.20
10905;DHT22;5505;51.450;9.254;2022-08-11T15:57:28;29.40;66.10
10905;DHT22;5505;51.450;9.254;2022-08-11T16:00:35;29.40;65.70
10905;DHT22;5505;51.450;9.254;2022-08-11T16:03:48;29.50;64.90
10905;DHT22;5505;51.450;9.254;2022-08-11T16:06:56;29.60;65.60
10905;DHT22;5505;51.450;9.254;2022-08-11T16:09:46;29.60;65.70
10905;DHT22;5505;51.450;9.254;2022-08-11T16:12:36;29.50;66.50
10905;DHT22;5505;51.450;9.254;2022-08-11T16:15:25;29.50;66.60
10905;DHT22;5505;51.450;9.254;2022-08-11T16:18:34;29.40;67.00
10905;DHT22;5505;51.450;9.254;2022-08-11T16:21:29;29.40;66.70
10905;DHT22;5505;51.450;9.254;2022-08-11T16:24:19;29.30;66.70
10905;DHT22;5505;51.450;9.254;2022-08-11T16:27:06;29.30;67.60
10905;DHT22;5505;51.450;9.254;2022-08-11T16:29:55;29.20;66.90
10905;DHT22;5505;51.450;9.254;2022-08-11T16:32:44;29.20;67.70
10905;DHT22;5505;51.450;9.254;2022-08-11T16:35:36;29.00;66.90
10905;DHT22;5505;51.450;9.254;2022-08-11T16:38:42;28.90;66.80
10905;DHT22;5505;51.450;9.254;2022-08-11T16:41:31;29.00;67.00
10905;DHT22;5505;51.450;9.254;2022-08-11T16:44:33;29.00;66.80
10905;DHT22;5505;51.450;9.254;2022-08-11T16:47:41;29.00;67.60
10905;DHT22;5505;51.450;9.254;2022-08-11T16:50:30;29.10;66.90
10905;DHT22;5505;51.450;9.254;2022-08-11T16:53:19;28.90;67.80
10905;DHT22;5505;51.450;9.254;2022-08-11T16:56:06;28.90;68.30
10905;DHT22;5505;51.450;9.254;2022-08-11T16:58:55;28.70;68.50
10905;DHT22;5505;51.450;9.254;2022-08-11T17:02:04;28.60;68.60
10905;DHT22;5505;51.450;9.254;2022-08-11T17:04:54;28.60;68.80
10905;DHT22;5505;51.450;9.254;2022-08-11T17:08:00;28.60;68.60
10905;DHT22;5505;51.450;9.254;2022-08-11T17:11:07;28.60;67.90
10905;DHT22;5505;51.450;9.254;2022-08-11T17:14:16;28.70;68.20
10905;DHT22;5505;51.450;9.254;2022-08-11T17:17:11;28.80;67.70
10905;DHT22;5505;51.450;9.254;2022-08-11T17:20:02;29.00;67.70
10905;DHT22;5505;51.450;9.254;2022-08-11T17:22:52;28.90;67.90
10905;DHT22;5505;51.450;9.254;2022-08-11T17:25:58;28.90;67.80
10905;DHT22;5505;51.450;9.254;2022-08-11T17:28:49;28.80;68.10
10905;DHT22;5505;51.450;9.254;2022-08-11T17:31:37;28.70;67.80
10905;DHT22;5505;51.450;9.254;2022-08-11T17:34:43;28.60;68.60
10905;DHT22;5505;51.450;9.254;2022-08-11T17:37:50;28.50;68.10
10905;DHT22;5505;51.450;9.254;2022-08-11T17:40:39;28.40;68.40
10905;DHT22;5505;51.450;9.254;2022-08-11T17:43:47;28.30;69.10
10905;DHT22;5505;51.450;9.254;2022-08-11T17:46:53;28.20;70.10
10905;DHT22;5505;51.450;9.254;2022-08-11T17:49:58;28.20;70.40
10905;DHT22;5505;51.450;9.254;2022-08-11T17:52:47;28.10;70.50
10905;DHT22;5505;51.450;9.254;2022-08-11T17:55:52;28.00;71.00
10905;DHT22;5505;51.450;9.254;2022-08-11T17:58:59;28.00;70.70
10905;DHT22;5505;51.450;9.254;2022-08-11T18:02:05;27.80;71.10
10905;DHT22;5505;51.450;9.254;2022-08-11T18:05:07;27.80;71.10
10905;DHT22;5505;51.450;9.254;2022-08-11T18:07:56;27.60;71.50
10905;DHT22;5505;51.450;9.254;2022-08-11T18:11:02;27.60;71.80
10905;DHT22;5505;51.450;9.254;2022-08-11T18:14:09;27.40;72.30
10905;DHT22;5505;51.450;9.254;2022-08-11T18:17:14;27.40;73.00
10905;DHT22;5505;51.450;9.254;2022-08-11T18:20:19;27.20;74.70
10905;DHT22;5505;51.450;9.254;2022-08-11T18:23:24;27.10;74.80
10905;DHT22;5505;51.450;9.254;2022-08-11T18:26:28;27.00;76.80
10905;DHT22;5505;51.450;9.254;2022-08-11T18:29:35;26.90;76.10
10905;DHT22;5505;51.450;9.254;2022-08-11T18:32:42;26.70;76.50
10905;DHT22;5505;51.450;9.254;2022-08-11T18:35:49;26.60;77.70
10905;DHT22;5505;51.450;9.254;2022-08-11T18:38:56;26.40;77.90
10905;DHT22;5505;51.450;9.254;2022-08-11T18:42:06;26.30;79.50
10905;DHT22;5505;51.450;9.254;2022-08-11T18:45:15;26.20;79.90
10905;DHT22;5505;51.450;9.254;2022-08-11T18:48:21;26.10;80.10
10905;DHT22;5505;51.450;9.254;2022-08-11T18:51:27;25.90;80.70
10905;DHT22;5505;51.450;9.254;2022-08-11T18:54:35;25.80;81.60
10905;DHT22;5505;51.450;9.254;2022-08-11T18:57:41;25.70;80.90
10905;DHT22;5505;51.450;9.254;2022-08-11T19:00:47;25.50;82.20
10905;DHT22;5505;51.450;9.254;2022-08-11T19:03:54;25.40;83.10
10905;DHT22;5505;51.450;9.254;2022-08-11T19:06:59;25.20;82.10
10905;DHT22;5505;51.450;9.254;2022-08-11T19:10:05;25.00;82.50
10905;DHT22;5505;51.450;9.254;2022-08-11T19:13:10;24.80;83.70
10905;DHT22;5505;51.450;9.254;2022-08-11T19:16:16;24.80;84.20
10905;DHT22;5505;51.450;9.254;2022-08-11T19:19:22;24.70;85.50
10905;DHT22;5505;51.450;9.254;2022-08-11T19:22:29;24.50;86.00
10905;DHT22;5505;51.450;9.254;2022-08-11T19:25:35;24.30;86.30
10905;DHT22;5505;51.450;9.254;2022-08-11T19:28:43;24.20;86.30
10905;DHT22;5505;51.450;9.254;2022-08-11T19:31:49;24.10;86.70
10905;DHT22;5505;51.450;9.254;2022-08-11T19:34:55;23.90;87.20
10905;DHT22;5505;51.450;9.254;2022-08-11T19:38:01;23.70;87.60
10905;DHT22;5505;51.450;9.254;2022-08-11T19:41:06;23.50;88.10
10905;DHT22;5505;51.450;9.254;2022-08-11T19:44:12;23.40;88.10
10905;DHT22;5505;51.450;9.254;2022-08-11T19:47:20;23.20;89.00